createdAt,value
2023-03-05T00:00:50.890Z,1008.79
2023-03-05T00:01:50.893Z,1008.78
2023-03-05T00:02:50.907Z,1008.76
2023-03-05T00:03:50.917Z,1008.74
2023-03-05T00:04:50.867Z,1008.73
2023-03-05T00:05:50.822Z,1008.73
2023-03-05T00:06:50.821Z,1008.72
2023-03-05T00:07:50.848Z,1008.71
2023-03-05T00:08:50.793Z,1008.70
2023-03-05T00:09:50.798Z,1008.67
2023-03-05T00:10:50.805Z,1008.64
2023-03-05T00:11:50.753Z,1008.63
2023-03-05T00:12:50.753Z,1008.65
2023-03-05T00:13:50.728Z,1008.67
2023-03-05T00:14:50.730Z,1008.70
2023-03-05T00:15:50.736Z,1008.69
2023-03-05T00:16:50.798Z,1008.69
2023-03-05T00:17:50.685Z,1008.68
2023-03-05T00:18:50.692Z,1008.66
2023-03-05T00:19:50.683Z,1008.63
2023-03-05T00:20:50.682Z,1008.63
2023-03-05T00:21:50.662Z,1008.63
2023-03-05T00:22:50.654Z,1008.65
2023-03-05T00:23:50.639Z,1008.66
2023-03-05T00:24:50.630Z,1008.67
2023-03-05T00:25:50.620Z,1008.67
2023-03-05T00:26:50.620Z,1008.67
2023-03-05T00:27:50.595Z,1008.66
2023-03-05T00:28:50.581Z,1008.65
2023-03-05T00:29:50.571Z,1008.64
2023-03-05T00:30:50.671Z,1008.63
2023-03-05T00:31:50.566Z,1008.60
2023-03-05T00:32:50.557Z,1008.60
2023-03-05T00:33:50.649Z,1008.60
2023-03-05T00:34:50.558Z,1008.59
2023-03-05T00:35:50.594Z,1008.58
2023-03-05T00:36:50.521Z,1008.57
2023-03-05T00:37:50.500Z,1008.56
2023-03-05T00:38:50.493Z,1008.53
2023-03-05T00:39:50.511Z,1008.53
2023-03-05T00:40:50.469Z,1008.52
2023-03-05T00:41:50.456Z,1008.52
2023-03-05T00:42:50.451Z,1008.50
2023-03-05T00:43:50.474Z,1008.49
2023-03-05T00:44:50.436Z,1008.46
2023-03-05T00:45:50.498Z,1008.44
2023-03-05T00:46:50.468Z,1008.42
2023-03-05T00:47:50.411Z,1008.41
2023-03-05T00:48:50.416Z,1008.38
2023-03-05T00:49:50.393Z,1008.37
2023-03-05T00:50:50.374Z,1008.35
2023-03-05T00:51:50.390Z,1008.35
2023-03-05T00:52:50.348Z,1008.34
2023-03-05T00:53:50.350Z,1008.32
2023-03-05T00:54:50.321Z,1008.31
2023-03-05T00:55:50.328Z,1008.29
2023-03-05T00:56:50.315Z,1008.28
2023-03-05T00:57:50.354Z,1008.27
2023-03-05T00:58:50.279Z,1008.27
2023-03-05T00:59:50.320Z,1008.26
2023-03-05T01:00:50.273Z,1008.24
2023-03-05T01:01:50.361Z,1008.23
2023-03-05T01:02:50.233Z,1008.21
2023-03-05T01:03:50.260Z,1008.21
2023-03-05T01:04:50.287Z,1008.20
2023-03-05T01:05:50.216Z,1008.20
2023-03-05T01:06:50.264Z,1008.20
2023-03-05T01:07:50.199Z,1008.19
2023-03-05T01:08:50.174Z,1008.18
2023-03-05T01:09:50.197Z,1008.16
2023-03-05T01:10:50.144Z,1008.15
2023-03-05T01:11:50.156Z,1008.14
2023-03-05T01:12:50.153Z,1008.13
2023-03-05T01:13:50.117Z,1008.12
2023-03-05T01:14:50.105Z,1008.11
2023-03-05T01:15:50.198Z,1008.11
2023-03-05T01:16:50.077Z,1008.10
2023-03-05T01:17:50.098Z,1008.09
2023-03-05T01:18:50.154Z,1008.10
2023-03-05T01:19:50.088Z,1008.09
2023-03-05T01:20:50.057Z,1008.09
2023-03-05T01:21:50.057Z,1008.07
2023-03-05T01:22:50.027Z,1008.05
2023-03-05T01:23:50.048Z,1008.04
2023-03-05T01:24:50.039Z,1008.04
2023-03-05T01:25:49.993Z,1008.02
2023-03-05T01:26:49.982Z,1007.99
2023-03-05T01:27:49.978Z,1007.98
2023-03-05T01:28:49.967Z,1007.98
2023-03-05T01:29:49.953Z,1007.95
2023-03-05T01:30:49.971Z,1007.94
2023-03-05T01:31:50.001Z,1007.93
2023-03-05T01:32:49.930Z,1007.92
2023-03-05T01:33:49.944Z,1007.92
2023-03-05T01:34:49.919Z,1007.91
2023-03-05T01:35:49.931Z,1007.89
2023-03-05T01:36:49.887Z,1007.88
2023-03-05T01:37:49.868Z,1007.86
2023-03-05T01:38:49.843Z,1007.86
2023-03-05T01:39:49.861Z,1007.85
2023-03-05T01:40:49.851Z,1007.85
2023-03-05T01:41:49.829Z,1007.84
2023-03-05T01:42:49.806Z,1007.84
2023-03-05T01:43:49.840Z,1007.83
2023-03-05T01:44:49.795Z,1007.82
2023-03-05T01:45:49.859Z,1007.82
2023-03-05T01:46:49.782Z,1007.82
2023-03-05T01:47:49.800Z,1007.81
2023-03-05T01:48:49.817Z,1007.80
2023-03-05T01:49:49.803Z,1007.81
2023-03-05T01:50:49.749Z,1007.79
2023-03-05T01:51:49.723Z,1007.80
2023-03-05T01:52:49.789Z,1007.78
2023-03-05T01:53:49.709Z,1007.78
2023-03-05T01:54:49.692Z,1007.77
2023-03-05T01:55:49.725Z,1007.75
2023-03-05T01:56:49.677Z,1007.73
2023-03-05T01:57:49.674Z,1007.73
2023-03-05T01:58:49.652Z,1007.70
2023-03-05T01:59:49.636Z,1007.69
2023-03-05T02:00:49.676Z,1007.66
2023-03-05T02:01:49.660Z,1007.64
2023-03-05T02:02:49.668Z,1007.64
2023-03-05T02:03:49.660Z,1007.63
2023-03-05T02:04:49.615Z,1007.61
2023-03-05T02:05:49.611Z,1007.60
2023-03-05T02:06:49.564Z,1007.59
2023-03-05T02:07:49.575Z,1007.58
2023-03-05T02:08:49.564Z,1007.56
2023-03-05T02:09:49.564Z,1007.53
2023-03-05T02:10:49.521Z,1007.51
2023-03-05T02:11:49.545Z,1007.49
2023-03-05T02:12:49.618Z,1007.47
2023-03-05T02:13:49.513Z,1007.47
2023-03-05T02:14:49.485Z,1007.45
2023-03-05T02:15:49.532Z,1007.45
2023-03-05T02:16:49.490Z,1007.43
2023-03-05T02:17:49.472Z,1007.42
2023-03-05T02:18:49.495Z,1007.41
2023-03-05T02:19:49.451Z,1007.39
2023-03-05T02:20:49.435Z,1007.38
2023-03-05T02:21:49.438Z,1007.38
2023-03-05T02:22:49.429Z,1007.37
2023-03-05T02:23:49.407Z,1007.35
2023-03-05T02:24:49.392Z,1007.33
2023-03-05T02:25:49.391Z,1007.32
2023-03-05T02:26:49.406Z,1007.29
2023-03-05T02:27:49.365Z,1007.28
2023-03-05T02:28:49.356Z,1007.27
2023-03-05T02:29:49.344Z,1007.26
2023-03-05T02:30:49.372Z,1007.24
2023-03-05T02:31:49.363Z,1007.24
2023-03-05T02:32:49.309Z,1007.23
2023-03-05T02:33:49.310Z,1007.21
2023-03-05T02:34:49.297Z,1007.20
2023-03-05T02:35:49.334Z,1007.18
2023-03-05T02:36:49.257Z,1007.17
2023-03-05T02:37:49.265Z,1007.17
2023-03-05T02:38:49.269Z,1007.16
2023-03-05T02:39:49.252Z,1007.17
2023-03-05T02:40:49.225Z,1007.16
2023-03-05T02:41:49.243Z,1007.17
2023-03-05T02:42:49.202Z,1007.16
2023-03-05T02:43:49.229Z,1007.16
2023-03-05T02:44:49.189Z,1007.15
2023-03-05T02:45:49.268Z,1007.15
2023-03-05T02:46:49.191Z,1007.14
2023-03-05T02:47:49.174Z,1007.14
2023-03-05T02:48:49.151Z,1007.13
2023-03-05T02:49:49.174Z,1007.14
2023-03-05T02:50:49.142Z,1007.11
2023-03-05T02:51:49.129Z,1007.11
2023-03-05T02:52:49.134Z,1007.09
2023-03-05T02:53:49.122Z,1007.07
2023-03-05T02:54:49.077Z,1007.06
2023-03-05T02:55:49.122Z,1007.05
2023-03-05T02:56:49.077Z,1007.05
2023-03-05T02:57:49.066Z,1007.04
2023-03-05T02:58:49.045Z,1007.03
2023-03-05T02:59:49.062Z,1007.03
2023-03-05T03:00:49.068Z,1007.01
2023-03-05T03:01:49.091Z,1007.01
2023-03-05T03:02:49.080Z,1006.98
2023-03-05T03:03:49.020Z,1006.96
2023-03-05T03:04:49.018Z,1006.95
2023-03-05T03:05:48.985Z,1006.94
2023-03-05T03:06:48.995Z,1006.92
2023-03-05T03:07:48.977Z,1006.92
2023-03-05T03:08:48.947Z,1006.91
2023-03-05T03:09:48.941Z,1006.89
2023-03-05T03:10:48.915Z,1006.88
2023-03-05T03:11:48.936Z,1006.87
2023-03-05T03:12:48.898Z,1006.84
2023-03-05T03:13:48.933Z,1006.83
2023-03-05T03:14:48.888Z,1006.80
2023-03-05T03:15:48.879Z,1006.77
2023-03-05T03:16:48.939Z,1006.74
2023-03-05T03:17:48.876Z,1006.74
2023-03-05T03:18:49.074Z,1006.72
2023-03-05T03:19:48.861Z,1006.70
2023-03-05T03:20:48.841Z,1006.69
2023-03-05T03:21:48.841Z,1006.67
2023-03-05T03:22:48.808Z,1006.67
2023-03-05T03:23:48.875Z,1006.65
2023-03-05T03:24:48.777Z,1006.64
2023-03-05T03:25:48.794Z,1006.64
2023-03-05T03:26:48.779Z,1006.62
2023-03-05T03:27:48.761Z,1006.60
2023-03-05T03:28:48.772Z,1006.60
2023-03-05T03:29:48.768Z,1006.59
2023-03-05T03:30:48.743Z,1006.56
2023-03-05T03:31:58.262Z,1006.56
2023-03-05T03:32:48.692Z,1006.54
2023-03-05T03:33:49.340Z,1006.53
2023-03-05T03:34:49.293Z,1006.52
2023-03-05T03:35:48.723Z,1006.52
2023-03-05T03:36:48.663Z,1006.51
2023-03-05T03:37:48.671Z,1006.49
2023-03-05T03:38:48.672Z,1006.48
2023-03-05T03:39:48.662Z,1006.46
2023-03-05T03:40:48.623Z,1006.45
2023-03-05T03:41:48.682Z,1006.46
2023-03-05T03:42:48.643Z,1006.43
2023-03-05T03:43:48.608Z,1006.42
2023-03-05T03:44:48.583Z,1006.40
2023-03-05T03:45:48.623Z,1006.39
2023-03-05T03:46:48.576Z,1006.37
2023-03-05T03:47:48.621Z,1006.35
2023-03-05T03:48:48.552Z,1006.34
2023-03-05T03:49:48.599Z,1006.33
2023-03-05T03:50:48.524Z,1006.33
2023-03-05T03:51:48.536Z,1006.32
2023-03-05T03:52:48.514Z,1006.30
2023-03-05T03:53:48.512Z,1006.28
2023-03-05T03:54:48.514Z,1006.27
2023-03-05T03:55:48.530Z,1006.26
2023-03-05T03:56:48.481Z,1006.26
2023-03-05T03:57:48.473Z,1006.26
2023-03-05T03:58:48.453Z,1006.23
2023-03-05T03:59:48.468Z,1006.21
2023-03-05T04:00:48.443Z,1006.19
2023-03-05T04:01:48.436Z,1006.17
2023-03-05T04:02:48.452Z,1006.15
2023-03-05T04:03:48.414Z,1006.12
2023-03-05T04:04:48.425Z,1006.10
2023-03-05T04:05:48.383Z,1006.08
2023-03-05T04:06:48.392Z,1006.05
2023-03-05T04:07:48.389Z,1006.03
2023-03-05T04:08:48.352Z,1006.01
2023-03-05T04:09:48.365Z,1005.99
2023-03-05T04:10:48.354Z,1006.00
2023-03-05T04:11:48.326Z,1005.99
2023-03-05T04:12:48.341Z,1006.00
2023-03-05T04:13:48.324Z,1005.99
2023-03-05T04:14:48.326Z,1005.97
2023-03-05T04:15:48.334Z,1005.93
2023-03-05T04:16:48.274Z,1005.89
2023-03-05T04:17:48.299Z,1005.83
2023-03-05T04:18:48.267Z,1005.77
2023-03-05T04:19:48.245Z,1005.74
2023-03-05T04:20:48.230Z,1005.74
2023-03-05T04:21:48.236Z,1005.81
2023-03-05T04:22:48.211Z,1005.84
2023-03-05T04:23:48.223Z,1005.86
2023-03-05T04:24:48.192Z,1005.89
2023-03-05T04:25:48.245Z,1005.90
2023-03-05T04:26:48.184Z,1005.90
2023-03-05T04:27:48.195Z,1005.89
2023-03-05T04:28:48.177Z,1005.87
2023-03-05T04:29:48.173Z,1005.87
2023-03-05T04:30:48.206Z,1005.85
2023-03-05T04:31:48.136Z,1005.84
2023-03-05T04:32:48.094Z,1005.85
2023-03-05T04:33:48.131Z,1005.85
2023-03-05T04:34:48.079Z,1005.85
2023-03-05T04:35:48.167Z,1005.86
2023-03-05T04:36:48.078Z,1005.85
2023-03-05T04:37:48.057Z,1005.85
2023-03-05T04:38:48.081Z,1005.83
2023-03-05T04:39:48.054Z,1005.80
2023-03-05T04:40:48.066Z,1005.77
2023-03-05T04:41:48.048Z,1005.75
2023-03-05T04:42:48.008Z,1005.75
2023-03-05T04:43:48.000Z,1005.77
2023-03-05T04:44:48.006Z,1005.78
2023-03-05T04:45:47.980Z,1005.78
2023-03-05T04:46:48.033Z,1005.78
2023-03-05T04:47:47.958Z,1005.75
2023-03-05T04:48:47.975Z,1005.74
2023-03-05T04:49:47.931Z,1005.75
2023-03-05T04:50:47.932Z,1005.73
2023-03-05T04:51:47.946Z,1005.72
2023-03-05T04:52:47.901Z,1005.70
2023-03-05T04:53:47.900Z,1005.67
2023-03-05T04:54:47.887Z,1005.64
2023-03-05T04:55:47.920Z,1005.64
2023-03-05T04:56:47.864Z,1005.66
2023-03-05T04:57:47.870Z,1005.66
2023-03-05T04:58:47.835Z,1005.65
2023-03-05T04:59:47.819Z,1005.66
2023-03-05T05:00:47.865Z,1005.70
2023-03-05T05:01:47.842Z,1005.69
2023-03-05T05:02:47.903Z,1005.70
2023-03-05T05:03:47.821Z,1005.70
2023-03-05T05:04:47.824Z,1005.71
2023-03-05T05:05:47.779Z,1005.72
2023-03-05T05:06:47.779Z,1005.71
2023-03-05T05:07:47.745Z,1005.71
2023-03-05T05:08:47.766Z,1005.69
2023-03-05T05:09:47.724Z,1005.68
2023-03-05T05:10:47.724Z,1005.67
2023-03-05T05:11:47.724Z,1005.67
2023-03-05T05:12:47.704Z,1005.66
2023-03-05T05:13:47.701Z,1005.65
2023-03-05T05:14:47.688Z,1005.63
2023-03-05T05:15:47.680Z,1005.62
2023-03-05T05:16:47.677Z,1005.61
2023-03-05T05:17:47.696Z,1005.61
2023-03-05T05:18:47.665Z,1005.60
2023-03-05T05:19:47.629Z,1005.59
2023-03-05T05:20:47.629Z,1005.58
2023-03-05T05:21:47.609Z,1005.57
2023-03-05T05:22:47.609Z,1005.59
2023-03-05T05:23:47.620Z,1005.58
2023-03-05T05:24:47.618Z,1005.57
2023-03-05T05:25:47.561Z,1005.57
2023-03-05T05:26:47.571Z,1005.57
2023-03-05T05:27:47.570Z,1005.56
2023-03-05T05:28:47.572Z,1005.55
2023-03-05T05:29:47.533Z,1005.53
2023-03-05T05:30:47.509Z,1005.55
2023-03-05T05:31:47.524Z,1005.54
2023-03-05T05:32:47.498Z,1005.53
2023-03-05T05:33:49.685Z,1005.54
2023-03-05T05:34:47.511Z,1005.55
2023-03-05T05:35:47.484Z,1005.54
2023-03-05T05:36:47.459Z,1005.53
2023-03-05T05:37:47.472Z,1005.53
2023-03-05T05:38:47.465Z,1005.54
2023-03-05T05:39:47.422Z,1005.53
2023-03-05T05:40:47.487Z,1005.52
2023-03-05T05:41:47.404Z,1005.54
2023-03-05T05:42:47.405Z,1005.54
2023-03-05T05:43:47.382Z,1005.55
2023-03-05T05:44:47.379Z,1005.55
2023-03-05T05:45:47.553Z,1005.55
2023-03-05T05:46:47.405Z,1005.58
2023-03-05T05:47:47.370Z,1005.58
2023-03-05T05:48:47.330Z,1005.57
2023-03-05T05:49:47.286Z,1005.57
2023-03-05T05:50:47.370Z,1005.56
2023-03-05T05:51:47.264Z,1005.56
2023-03-05T05:52:47.261Z,1005.54
2023-03-05T05:53:47.330Z,1005.53
2023-03-05T05:54:47.231Z,1005.50
2023-03-05T05:55:47.238Z,1005.50
2023-03-05T05:56:47.309Z,1005.48
2023-03-05T05:57:47.195Z,1005.49
2023-03-05T05:58:47.223Z,1005.49
2023-03-05T05:59:47.197Z,1005.48
2023-03-05T06:00:47.167Z,1005.47
2023-03-05T06:01:47.204Z,1005.46
2023-03-05T06:02:47.289Z,1005.45
2023-03-05T06:03:47.145Z,1005.45
2023-03-05T06:04:47.138Z,1005.45
2023-03-05T06:05:47.160Z,1005.44
2023-03-05T06:06:47.147Z,1005.43
2023-03-05T06:07:47.101Z,1005.43
2023-03-05T06:08:47.130Z,1005.43
2023-03-05T06:09:47.067Z,1005.42
2023-03-05T06:10:47.101Z,1005.41
2023-03-05T06:11:47.053Z,1005.41
2023-03-05T06:12:47.052Z,1005.41
2023-03-05T06:13:47.066Z,1005.40
2023-03-05T06:14:47.017Z,1005.38
2023-03-05T06:15:47.000Z,1005.38
2023-03-05T06:16:47.084Z,1005.36
2023-03-05T06:17:47.012Z,1005.36
2023-03-05T06:18:46.990Z,1005.34
2023-03-05T06:19:46.958Z,1005.35
2023-03-05T06:20:46.963Z,1005.35
2023-03-05T06:21:46.954Z,1005.36
2023-03-05T06:22:46.983Z,1005.35
2023-03-05T06:23:46.942Z,1005.35
2023-03-05T06:24:46.922Z,1005.36
2023-03-05T06:25:46.905Z,1005.37
2023-03-05T06:26:46.906Z,1005.37
2023-03-05T06:27:46.914Z,1005.38
2023-03-05T06:28:46.911Z,1005.38
2023-03-05T06:29:46.880Z,1005.36
2023-03-05T06:30:46.893Z,1005.36
2023-03-05T06:31:46.853Z,1005.36
2023-03-05T06:32:46.859Z,1005.36
2023-03-05T06:33:46.838Z,1005.36
2023-03-05T06:34:46.828Z,1005.35
2023-03-05T06:35:46.878Z,1005.36
2023-03-05T06:36:46.813Z,1005.36
2023-03-05T06:37:46.792Z,1005.36
2023-03-05T06:38:48.461Z,1005.34
2023-03-05T06:39:46.774Z,1005.33
2023-03-05T06:40:46.766Z,1005.32
2023-03-05T06:41:46.742Z,1005.31
2023-03-05T06:42:46.841Z,1005.32
2023-03-05T06:43:46.748Z,1005.31
2023-03-05T06:44:48.238Z,1005.30
2023-03-05T06:45:46.763Z,1005.31
2023-03-05T06:46:46.692Z,1005.31
2023-03-05T06:47:46.702Z,1005.29
2023-03-05T06:48:46.693Z,1005.30
2023-03-05T06:49:46.663Z,1005.30
2023-03-05T06:50:46.662Z,1005.30
2023-03-05T06:51:46.640Z,1005.30
2023-03-05T06:52:46.635Z,1005.28
2023-03-05T06:53:49.041Z,1005.27
2023-03-05T06:54:46.619Z,1005.28
2023-03-05T06:55:46.591Z,1005.27
2023-03-05T06:56:46.642Z,1005.27
2023-03-05T06:57:46.584Z,1005.28
2023-03-05T06:58:46.569Z,1005.28
2023-03-05T06:59:46.602Z,1005.27
2023-03-05T07:00:46.608Z,1005.27
2023-03-05T07:01:46.547Z,1005.26
2023-03-05T07:02:46.574Z,1005.26
2023-03-05T07:03:46.552Z,1005.25
2023-03-05T07:04:46.522Z,1005.26
2023-03-05T07:05:46.512Z,1005.25
2023-03-05T07:06:46.515Z,1005.25
2023-03-05T07:07:46.468Z,1005.25
2023-03-05T07:08:46.492Z,1005.24
2023-03-05T07:09:46.445Z,1005.22
2023-03-05T07:10:46.456Z,1005.23
2023-03-05T07:11:46.425Z,1005.22
2023-03-05T07:12:46.436Z,1005.21
2023-03-05T07:13:46.436Z,1005.20
2023-03-05T07:14:46.414Z,1005.19
2023-03-05T07:15:46.421Z,1005.17
2023-03-05T07:16:46.421Z,1005.16
2023-03-05T07:17:46.375Z,1005.15
2023-03-05T07:18:46.383Z,1005.15
2023-03-05T07:19:46.356Z,1005.13
2023-03-05T07:20:46.342Z,1005.13
2023-03-05T07:21:46.337Z,1005.12
2023-03-05T07:22:46.356Z,1005.12
2023-03-05T07:23:46.310Z,1005.12
2023-03-05T07:24:46.328Z,1005.12
2023-03-05T07:25:46.337Z,1005.12
2023-03-05T07:26:47.995Z,1005.14
2023-03-05T07:27:46.274Z,1005.15
2023-03-05T07:28:46.273Z,1005.15
2023-03-05T07:29:46.257Z,1005.14
2023-03-05T07:30:46.272Z,1005.14
2023-03-05T07:31:46.221Z,1005.14
2023-03-05T07:32:46.261Z,1005.13
2023-03-05T07:33:46.206Z,1005.13
2023-03-05T07:34:46.226Z,1005.14
2023-03-05T07:35:46.244Z,1005.15
2023-03-05T07:36:46.183Z,1005.14
2023-03-05T07:37:46.174Z,1005.14
2023-03-05T07:38:46.184Z,1005.13
2023-03-05T07:39:47.282Z,1005.13
2023-03-05T07:40:46.152Z,1005.15
2023-03-05T07:41:46.145Z,1005.14
2023-03-05T07:42:46.133Z,1005.14
2023-03-05T07:43:46.138Z,1005.13
2023-03-05T07:44:46.102Z,1005.12
2023-03-05T07:45:46.213Z,1005.11
2023-03-05T07:46:46.080Z,1005.12
2023-03-05T07:47:46.068Z,1005.12
2023-03-05T07:48:46.073Z,1005.13
2023-03-05T07:49:46.069Z,1005.13
2023-03-05T07:50:46.053Z,1005.14
2023-03-05T07:51:46.026Z,1005.13
2023-03-05T07:52:46.030Z,1005.14
2023-03-05T07:53:46.066Z,1005.12
2023-03-05T07:54:46.005Z,1005.13
2023-03-05T07:55:45.992Z,1005.13
2023-03-05T07:56:45.989Z,1005.13
2023-03-05T07:57:45.983Z,1005.12
2023-03-05T07:58:45.973Z,1005.11
2023-03-05T07:59:45.949Z,1005.10
2023-03-05T08:00:45.968Z,1005.10
2023-03-05T08:01:45.945Z,1005.10
2023-03-05T08:02:45.970Z,1005.09
2023-03-05T08:03:45.938Z,1005.09
2023-03-05T08:04:45.929Z,1005.07
2023-03-05T08:05:45.885Z,1005.07
2023-03-05T08:06:45.899Z,1005.05
2023-03-05T08:07:45.862Z,1005.07
2023-03-05T08:08:45.857Z,1005.06
2023-03-05T08:09:45.849Z,1005.05
2023-03-05T08:10:45.861Z,1005.03
2023-03-05T08:11:45.839Z,1005.01
2023-03-05T08:12:45.841Z,1005.02
2023-03-05T08:13:45.817Z,1005.03
2023-03-05T08:14:45.780Z,1005.00
2023-03-05T08:15:45.825Z,1005.00
2023-03-05T08:16:48.148Z,1004.99
2023-03-05T08:17:45.750Z,1004.98
2023-03-05T08:18:45.759Z,1004.97
2023-03-05T08:19:45.747Z,1004.98
2023-03-05T08:20:45.733Z,1004.94
2023-03-05T08:21:45.720Z,1004.94
2023-03-05T08:22:45.713Z,1004.92
2023-03-05T08:23:45.722Z,1004.91
2023-03-05T08:24:45.724Z,1004.91
2023-03-05T08:25:45.694Z,1004.90
2023-03-05T08:26:45.675Z,1004.90
2023-03-05T08:27:45.668Z,1004.89
2023-03-05T08:28:45.661Z,1004.88
2023-03-05T08:29:45.663Z,1004.87
2023-03-05T08:30:45.629Z,1004.88
2023-03-05T08:31:45.610Z,1004.84
2023-03-05T08:32:45.627Z,1004.82
2023-03-05T08:33:45.621Z,1004.83
2023-03-05T08:34:45.600Z,1004.84
2023-03-05T08:35:45.619Z,1004.83
2023-03-05T08:36:45.590Z,1004.81
2023-03-05T08:37:45.580Z,1004.80
2023-03-05T08:38:45.561Z,1004.79
2023-03-05T08:39:45.540Z,1004.79
2023-03-05T08:40:45.550Z,1004.78
2023-03-05T08:41:45.510Z,1004.77
2023-03-05T08:42:45.506Z,1004.77
2023-03-05T08:43:45.497Z,1004.77
2023-03-05T08:44:45.536Z,1004.76
2023-03-05T08:45:45.489Z,1004.76
2023-03-05T08:46:45.564Z,1004.74
2023-03-05T08:47:45.461Z,1004.75
2023-03-05T08:48:45.460Z,1004.74
2023-03-05T08:49:45.516Z,1004.76
2023-03-05T08:50:45.443Z,1004.75
2023-03-05T08:51:45.434Z,1004.72
2023-03-05T08:52:45.429Z,1004.71
2023-03-05T08:53:45.394Z,1004.70
2023-03-05T08:54:45.390Z,1004.70
2023-03-05T08:55:45.362Z,1004.70
2023-03-05T08:56:45.374Z,1004.70
2023-03-05T08:57:45.376Z,1004.69
2023-03-05T08:58:45.364Z,1004.68
2023-03-05T08:59:45.356Z,1004.69
2023-03-05T09:00:45.327Z,1004.65
2023-03-05T09:01:45.400Z,1004.64
2023-03-05T09:02:45.359Z,1004.64
2023-03-05T09:03:45.294Z,1004.63
2023-03-05T09:04:45.296Z,1004.64
2023-03-05T09:05:45.274Z,1004.64
2023-03-05T09:06:45.284Z,1004.64
2023-03-05T09:07:45.278Z,1004.63
2023-03-05T09:08:45.248Z,1004.63
2023-03-05T09:09:45.230Z,1004.64
2023-03-05T09:10:45.252Z,1004.64
2023-03-05T09:11:45.208Z,1004.64
2023-03-05T09:12:45.279Z,1004.61
2023-03-05T09:13:45.188Z,1004.62
2023-03-05T09:14:45.204Z,1004.62
2023-03-05T09:15:45.216Z,1004.61
2023-03-05T09:16:45.194Z,1004.61
2023-03-05T09:17:45.159Z,1004.60
2023-03-05T09:18:45.217Z,1004.59
2023-03-05T09:19:45.138Z,1004.57
2023-03-05T09:20:45.124Z,1004.56
2023-03-05T09:21:45.134Z,1004.56
2023-03-05T09:22:45.104Z,1004.53
2023-03-05T09:23:45.100Z,1004.50
2023-03-05T09:24:45.081Z,1004.48
2023-03-05T09:25:45.073Z,1004.50
2023-03-05T09:26:45.071Z,1004.48
2023-03-05T09:27:45.082Z,1004.47
2023-03-05T09:28:45.050Z,1004.47
2023-03-05T09:29:45.034Z,1004.47
2023-03-05T09:30:45.005Z,1004.46
2023-03-05T09:31:45.057Z,1004.45
2023-03-05T09:32:45.053Z,1004.44
2023-03-05T09:33:45.008Z,1004.45
2023-03-05T09:34:44.985Z,1004.45
2023-03-05T09:35:45.018Z,1004.44
2023-03-05T09:36:44.973Z,1004.44
2023-03-05T09:37:44.984Z,1004.43
2023-03-05T09:38:44.941Z,1004.43
2023-03-05T09:39:44.941Z,1004.41
2023-03-05T09:40:44.942Z,1004.40
2023-03-05T09:41:44.945Z,1004.39
2023-03-05T09:42:44.894Z,1004.38
2023-03-05T09:43:44.921Z,1004.38
2023-03-05T09:44:44.886Z,1004.38
2023-03-05T09:45:44.936Z,1004.34
2023-03-05T09:46:44.913Z,1004.36
2023-03-05T09:47:44.864Z,1004.36
2023-03-05T09:48:44.850Z,1004.35
2023-03-05T09:49:44.832Z,1004.33
2023-03-05T09:50:44.830Z,1004.33
2023-03-05T09:51:44.838Z,1004.33
2023-03-05T09:52:44.802Z,1004.31
2023-03-05T09:53:44.816Z,1004.29
2023-03-05T09:54:44.821Z,1004.30
2023-03-05T09:55:44.784Z,1004.30
2023-03-05T09:56:44.853Z,1004.29
2023-03-05T09:57:44.748Z,1004.31
2023-03-05T09:58:44.743Z,1004.30
2023-03-05T09:59:44.785Z,1004.29
2023-03-05T10:00:44.759Z,1004.28
2023-03-05T10:01:44.877Z,1004.27
2023-03-05T10:02:44.727Z,1004.28
2023-03-05T10:03:44.746Z,1004.24
2023-03-05T10:04:44.682Z,1004.24
2023-03-05T10:05:44.665Z,1004.22
2023-03-05T10:06:44.675Z,1004.23
2023-03-05T10:07:44.678Z,1004.23
2023-03-05T10:08:44.658Z,1004.30
2023-03-05T10:09:44.626Z,1004.42
2023-03-05T10:10:44.629Z,1004.39
2023-03-05T10:11:44.650Z,1004.38
2023-03-05T10:12:44.611Z,1004.39
2023-03-05T10:13:44.590Z,1004.34
2023-03-05T10:14:44.617Z,1004.32
2023-03-05T10:15:44.626Z,1004.31
2023-03-05T10:16:44.695Z,1004.32
2023-03-05T10:17:44.648Z,1004.31
2023-03-05T10:18:44.544Z,1004.32
2023-03-05T10:19:44.551Z,1004.29
2023-03-05T10:20:44.596Z,1004.27
2023-03-05T10:21:44.590Z,1004.24
2023-03-05T10:22:44.509Z,1004.21
2023-03-05T10:23:44.495Z,1004.20
2023-03-05T10:24:44.570Z,1004.20
2023-03-05T10:25:44.483Z,1004.19
2023-03-05T10:26:44.489Z,1004.21
2023-03-05T10:27:44.536Z,1004.20
2023-03-05T10:28:44.464Z,1004.20
2023-03-05T10:29:44.440Z,1004.18
2023-03-05T10:30:44.475Z,1004.19
2023-03-05T10:31:44.502Z,1004.17
2023-03-05T10:32:44.466Z,1004.15
2023-03-05T10:33:44.416Z,1004.13
2023-03-05T10:34:44.469Z,1004.12
2023-03-05T10:35:44.407Z,1004.10
2023-03-05T10:36:44.362Z,1004.09
2023-03-05T10:37:44.375Z,1004.07
2023-03-05T10:38:44.364Z,1004.05
2023-03-05T10:39:44.355Z,1004.03
2023-03-05T10:40:44.340Z,1004.01
2023-03-05T10:41:44.301Z,1003.99
2023-03-05T10:42:44.303Z,1003.99
2023-03-05T10:43:44.319Z,1003.96
2023-03-05T10:44:44.281Z,1003.95
2023-03-05T10:45:44.335Z,1003.93
2023-03-05T10:46:44.274Z,1003.94
2023-03-05T10:47:44.334Z,1003.93
2023-03-05T10:48:44.241Z,1003.92
2023-03-05T10:49:44.228Z,1003.89
2023-03-05T10:50:44.256Z,1003.88
2023-03-05T10:51:44.217Z,1003.85
2023-03-05T10:52:44.216Z,1003.84
2023-03-05T10:53:44.264Z,1003.83
2023-03-05T10:54:44.166Z,1003.80
2023-03-05T10:55:44.188Z,1003.77
2023-03-05T10:56:44.190Z,1003.76
2023-03-05T10:57:44.156Z,1003.76
2023-03-05T10:58:44.137Z,1003.73
2023-03-05T10:59:44.201Z,1003.69
2023-03-05T11:00:44.109Z,1003.69
2023-03-05T11:01:44.155Z,1003.67
2023-03-05T11:02:44.144Z,1003.63
2023-03-05T11:03:44.116Z,1003.60
2023-03-05T11:04:44.079Z,1003.59
2023-03-05T11:05:44.070Z,1003.56
2023-03-05T11:06:44.102Z,1003.59
2023-03-05T11:07:44.090Z,1003.61
2023-03-05T11:08:44.032Z,1003.50
2023-03-05T11:09:44.069Z,1003.53
2023-03-05T11:10:44.008Z,1003.52
2023-03-05T11:11:44.026Z,1003.51
2023-03-05T11:12:44.011Z,1003.51
2023-03-05T11:13:43.996Z,1003.49
2023-03-05T11:14:43.992Z,1003.47
2023-03-05T11:15:44.001Z,1003.47
2023-03-05T11:16:43.942Z,1003.48
2023-03-05T11:17:43.957Z,1003.47
2023-03-05T11:18:43.923Z,1003.48
2023-03-05T11:19:43.940Z,1003.47
2023-03-05T11:20:43.900Z,1003.45
2023-03-05T11:21:43.934Z,1003.43
2023-03-05T11:22:43.949Z,1003.42
2023-03-05T11:23:43.880Z,1003.41
2023-03-05T11:24:43.861Z,1003.40
2023-03-05T11:25:43.876Z,1003.38
2023-03-05T11:26:43.882Z,1003.37
2023-03-05T11:27:43.880Z,1003.33
2023-03-05T11:28:43.863Z,1003.33
2023-03-05T11:29:43.831Z,1003.33
2023-03-05T11:30:43.809Z,1003.31
2023-03-05T11:31:43.800Z,1003.29
2023-03-05T11:32:43.825Z,1003.33
2023-03-05T11:33:43.772Z,1003.28
2023-03-05T11:34:43.761Z,1003.27
2023-03-05T11:35:43.868Z,1003.27
2023-03-05T11:36:43.745Z,1003.25
2023-03-05T11:37:43.743Z,1003.23
2023-03-05T11:38:43.797Z,1003.21
2023-03-05T11:39:43.720Z,1003.20
2023-03-05T11:40:43.692Z,1003.22
2023-03-05T11:41:43.722Z,1003.20
2023-03-05T11:42:43.708Z,1003.20
2023-03-05T11:43:43.683Z,1003.20
2023-03-05T11:44:43.651Z,1003.21
2023-03-05T11:45:43.680Z,1003.23
2023-03-05T11:46:43.663Z,1003.22
2023-03-05T11:47:43.652Z,1003.28
2023-03-05T11:48:43.659Z,1003.21
2023-03-05T11:49:43.646Z,1003.19
2023-03-05T11:50:43.604Z,1003.18
2023-03-05T11:51:43.597Z,1003.18
2023-03-05T11:52:43.568Z,1003.14
2023-03-05T11:53:43.602Z,1003.16
2023-03-05T11:54:43.570Z,1003.14
2023-03-05T11:55:43.566Z,1003.10
2023-03-05T11:56:43.546Z,1003.09
2023-03-05T11:57:43.538Z,1003.08
2023-03-05T11:58:43.523Z,1003.06
2023-03-05T11:59:43.536Z,1003.04
2023-03-05T12:00:43.520Z,1003.03
2023-03-05T12:01:43.500Z,1003.01
2023-03-05T12:02:43.563Z,1003.01
2023-03-05T12:03:43.585Z,1003.00
2023-03-05T12:04:43.456Z,1002.98
2023-03-05T12:05:43.523Z,1002.96